createdAt,value
2022-10-29T00:00:08.786Z,6.80
2022-10-29T00:02:36.426Z,7.10
2022-10-29T00:05:04.356Z,6.10
2022-10-29T00:07:31.947Z,7.13
2022-10-29T00:09:59.571Z,7.40
2022-10-29T00:12:28.593Z,6.90
2022-10-29T00:14:56.233Z,7.93
2022-10-29T00:17:24.008Z,7.07
2022-10-29T00:19:51.635Z,7.13
2022-10-29T00:22:19.310Z,7.13
2022-10-29T00:24:46.906Z,7.40
2022-10-29T00:27:14.515Z,6.37
2022-10-29T00:29:43.612Z,6.90
2022-10-29T00:32:11.365Z,6.50
2022-10-29T00:34:39.233Z,7.27
2022-10-29T00:37:06.888Z,6.63
2022-10-29T00:39:34.554Z,7.80
2022-10-29T00:42:02.432Z,6.53
2022-10-29T00:44:32.800Z,6.60
2022-10-29T00:47:14.786Z,6.53
2022-10-29T00:49:44.519Z,6.73
2022-10-29T00:52:12.290Z,7.83
2022-10-29T00:54:43.719Z,6.80
2022-10-29T00:57:15.543Z,7.33
2022-10-29T00:59:44.416Z,6.30
2022-10-29T01:02:13.815Z,6.70
2022-10-29T01:04:42.820Z,7.50
2022-10-29T01:07:11.743Z,7.70
2022-10-29T01:09:39.947Z,6.67
2022-10-29T01:12:33.354Z,6.33
2022-10-29T01:15:09.096Z,6.77
2022-10-29T01:17:51.119Z,6.63
2022-10-29T01:20:45.526Z,6.83
2022-10-29T01:23:39.991Z,7.27
2022-10-29T01:26:27.014Z,7.33
2022-10-29T01:29:11.527Z,7.70
2022-10-29T01:31:46.931Z,7.27
2022-10-29T01:34:21.200Z,7.50
2022-10-29T01:36:55.023Z,6.90
2022-10-29T01:39:36.618Z,8.20
2022-10-29T01:42:12.039Z,8.03
2022-10-29T01:44:47.013Z,7.63
2022-10-29T01:47:19.353Z,8.30
2022-10-29T01:49:52.595Z,7.70
2022-10-29T01:52:23.271Z,7.50
2022-10-29T01:54:50.919Z,6.80
2022-10-29T01:57:31.269Z,7.37
2022-10-29T02:00:02.309Z,7.00
2022-10-29T02:02:48.210Z,8.17
2022-10-29T02:05:26.546Z,7.10
2022-10-29T02:08:00.666Z,7.10
2022-10-29T02:10:34.638Z,8.23
2022-10-29T02:13:02.645Z,7.90
2022-10-29T02:15:34.540Z,7.50
2022-10-29T02:18:06.042Z,7.03
2022-10-29T02:20:34.245Z,8.53
2022-10-29T02:23:01.981Z,6.97
2022-10-29T02:25:30.335Z,7.73
2022-10-29T02:27:58.248Z,7.83
2022-10-29T02:30:26.035Z,7.73
2022-10-29T02:32:53.866Z,8.60
2022-10-29T02:35:23.107Z,7.43
2022-10-29T02:37:51.051Z,7.33
2022-10-29T02:40:26.526Z,6.53
2022-10-29T02:42:56.142Z,7.80
2022-10-29T02:45:24.035Z,7.33
2022-10-29T02:47:51.690Z,6.97
2022-10-29T02:50:21.198Z,7.90
2022-10-29T02:52:50.166Z,7.43
2022-10-29T02:55:17.770Z,7.73
2022-10-29T02:57:53.224Z,7.73
2022-10-29T03:00:23.831Z,7.53
2022-10-29T03:02:52.895Z,7.70
2022-10-29T03:05:20.630Z,7.50
2022-10-29T03:07:48.266Z,7.30
2022-10-29T03:10:17.367Z,7.23
2022-10-29T03:12:44.964Z,7.93
2022-10-29T03:15:12.617Z,7.33
2022-10-29T03:17:40.197Z,7.30
2022-10-29T03:20:08.645Z,7.57
2022-10-29T03:22:37.437Z,7.50
2022-10-29T03:25:05.503Z,7.47
2022-10-29T03:27:41.076Z,7.07
2022-10-29T03:30:10.134Z,6.67
2022-10-29T03:32:41.361Z,7.03
2022-10-29T03:35:10.386Z,7.37
2022-10-29T03:37:38.182Z,7.23
2022-10-29T03:40:07.040Z,7.63
2022-10-29T03:42:36.006Z,7.70
2022-10-29T03:45:03.617Z,7.00
2022-10-29T03:47:31.265Z,7.63
2022-10-29T03:49:58.839Z,7.13
2022-10-29T03:52:26.379Z,6.90
2022-10-29T03:54:53.999Z,7.47
2022-10-29T03:57:21.612Z,7.50
2022-10-29T03:59:52.568Z,7.43
2022-10-29T04:02:20.822Z,7.00
2022-10-29T04:04:48.545Z,7.40
2022-10-29T04:07:16.260Z,7.23
2022-10-29T04:09:43.910Z,7.23
2022-10-29T04:12:11.475Z,7.03
2022-10-29T04:14:44.469Z,7.03
2022-10-29T04:17:15.012Z,6.77
2022-10-29T04:19:42.621Z,8.33
2022-10-29T04:28:41.362Z,7.17
2022-10-29T04:30:33.605Z,7.07
2022-10-29T04:33:02.527Z,7.73
2022-10-29T04:35:30.457Z,7.67
2022-10-29T04:37:58.387Z,7.80
2022-10-29T04:40:26.236Z,8.17
2022-10-29T04:42:54.083Z,6.70
2022-10-29T04:45:21.971Z,7.40
2022-10-29T04:47:49.558Z,7.07
2022-10-29T04:50:18.685Z,7.57
2022-10-29T04:52:46.286Z,7.57
2022-10-29T04:55:13.910Z,6.90
2022-10-29T04:57:41.462Z,7.50
2022-10-29T05:00:14.946Z,7.77
2022-10-29T05:02:48.798Z,7.77
2022-10-29T05:05:18.407Z,7.80
2022-10-29T05:07:46.481Z,7.23
2022-10-29T05:10:14.936Z,6.93
2022-10-29T05:12:42.624Z,8.23
2022-10-29T05:15:11.076Z,8.30
2022-10-29T05:17:39.353Z,7.73
2022-10-29T05:20:08.063Z,7.70
2022-10-29T05:22:37.007Z,7.40
2022-10-29T05:25:04.974Z,7.83
2022-10-29T05:27:32.710Z,8.73
2022-10-29T05:30:00.319Z,7.70
2022-10-29T05:32:29.444Z,8.43
2022-10-29T05:34:57.135Z,8.33
2022-10-29T05:37:25.489Z,6.63
2022-10-29T05:39:54.424Z,8.27
2022-10-29T05:42:22.148Z,7.83
2022-10-29T05:44:49.698Z,7.90
2022-10-29T05:47:17.282Z,7.87
2022-10-29T05:49:44.890Z,7.40
2022-10-29T05:52:12.510Z,6.30
2022-10-29T05:54:40.119Z,7.30
2022-10-29T05:57:09.081Z,7.33
2022-10-29T05:59:36.622Z,7.30
2022-10-29T06:02:04.374Z,6.53
2022-10-29T06:04:32.111Z,7.10
2022-10-29T06:06:59.722Z,8.07
2022-10-29T06:09:27.259Z,7.77
2022-10-29T06:11:55.809Z,6.73
2022-10-29T06:14:24.812Z,6.77
2022-10-29T06:16:52.412Z,8.10
2022-10-29T06:19:20.221Z,9.20
2022-10-29T06:21:47.805Z,6.77
2022-10-29T06:24:15.387Z,7.40
2022-10-29T06:26:43.049Z,6.87
2022-10-29T06:29:10.642Z,7.20
2022-10-29T06:31:39.546Z,6.67
2022-10-29T06:34:07.322Z,7.67
2022-10-29T06:36:34.914Z,7.57
2022-10-29T06:39:02.880Z,6.50
2022-10-29T06:41:30.509Z,6.97
2022-10-29T06:43:58.536Z,7.17
2022-10-29T06:46:26.134Z,8.43
2022-10-29T06:48:55.204Z,7.67
2022-10-29T06:53:55.716Z,7.50
2022-10-29T06:56:23.423Z,7.50
2022-10-29T06:58:50.970Z,7.03
2022-10-29T07:01:18.606Z,7.17
2022-10-29T07:03:46.242Z,7.63
2022-10-29T07:06:15.137Z,7.13
2022-10-29T07:08:42.772Z,7.53
2022-10-29T07:11:10.337Z,7.20
2022-10-29T07:13:37.978Z,8.07
2022-10-29T07:16:06.360Z,7.53
2022-10-29T07:18:34.315Z,7.80
2022-10-29T07:21:04.047Z,7.40
2022-10-29T07:23:33.066Z,7.40
2022-10-29T07:26:00.615Z,8.10
2022-10-29T07:28:28.269Z,7.70
2022-10-29T07:31:00.701Z,6.83
2022-10-29T07:33:29.867Z,7.60
2022-10-29T07:35:58.448Z,7.83
2022-10-29T07:38:26.469Z,7.43
2022-10-29T07:40:55.755Z,8.63
2022-10-29T07:43:23.901Z,7.00
2022-10-29T07:45:52.399Z,8.43
2022-10-29T07:48:21.245Z,7.70
2022-10-29T07:50:49.211Z,6.83
2022-10-29T07:53:17.128Z,7.50
2022-10-29T07:55:45.600Z,8.10
2022-10-29T07:58:14.565Z,8.73
2022-10-29T08:00:42.565Z,8.10
2022-10-29T08:03:12.545Z,7.10
2022-10-29T08:05:42.817Z,6.83
2022-10-29T08:08:11.254Z,8.17
2022-10-29T08:10:38.892Z,8.20
2022-10-29T08:13:07.856Z,7.03
2022-10-29T08:15:37.156Z,8.20
2022-10-29T08:18:10.676Z,7.40
2022-10-29T08:20:38.363Z,8.07
2022-10-29T08:23:05.994Z,7.53
2022-10-29T08:25:33.562Z,7.87
2022-10-29T08:28:02.330Z,7.07
2022-10-29T08:30:30.426Z,7.00
2022-10-29T08:32:59.986Z,7.60
2022-10-29T08:35:28.492Z,7.53
2022-10-29T08:37:56.316Z,7.47
2022-10-29T08:40:30.392Z,7.00
2022-10-29T08:43:25.939Z,7.07
2022-10-29T08:45:55.735Z,8.57
2022-10-29T08:48:31.051Z,7.33
2022-10-29T08:51:04.304Z,7.30
2022-10-29T08:53:37.495Z,6.83
2022-10-29T08:56:11.029Z,6.17
2022-10-29T08:58:46.000Z,6.73
2022-10-29T09:01:14.021Z,6.83
2022-10-29T09:03:43.051Z,7.27
2022-10-29T09:06:14.442Z,6.17
2022-10-29T09:08:55.722Z,7.60
2022-10-29T09:11:41.734Z,7.00
2022-10-29T09:14:37.027Z,6.57
2022-10-29T09:17:14.667Z,6.00
2022-10-29T09:20:00.001Z,6.27
2022-10-29T09:22:33.468Z,6.23
2022-10-29T09:25:13.729Z,6.50
2022-10-29T09:27:54.850Z,5.85
2022-10-29T09:30:23.219Z,6.07
2022-10-29T09:32:59.721Z,5.00
2022-10-29T09:35:38.951Z,5.95
2022-10-29T09:38:17.107Z,6.47
2022-10-29T09:40:45.391Z,6.13
2022-10-29T09:43:25.132Z,5.68
2022-10-29T09:46:01.379Z,5.20
2022-10-29T09:48:35.879Z,5.88
2022-10-29T09:51:16.387Z,5.75
2022-10-29T09:53:44.653Z,6.43
2022-10-29T09:56:12.246Z,6.57
2022-10-29T09:58:45.596Z,5.95
2022-10-29T10:01:14.613Z,6.00
2022-10-29T10:03:45.600Z,6.03
2022-10-29T10:06:16.763Z,5.82
2022-10-29T10:09:01.610Z,7.35
2022-10-29T10:11:36.618Z,6.57
2022-10-29T10:14:09.211Z,6.68
2022-10-29T10:16:37.510Z,5.80
2022-10-29T10:19:22.375Z,6.38
2022-10-29T10:21:58.401Z,6.13
2022-10-29T10:24:34.252Z,6.15
2022-10-29T10:27:02.160Z,6.53
2022-10-29T10:29:29.742Z,6.30
2022-10-29T10:32:17.028Z,5.82
2022-10-29T10:34:44.597Z,5.80
2022-10-29T10:37:19.320Z,6.32
2022-10-29T10:39:49.490Z,6.30
2022-10-29T10:42:20.137Z,5.60
2022-10-29T10:44:52.925Z,6.40
2022-10-29T10:47:23.439Z,5.75
2022-10-29T10:49:51.168Z,6.10
2022-10-29T10:52:26.810Z,6.20
2022-10-29T10:55:01.227Z,5.80
2022-10-29T10:57:33.986Z,5.43
2022-10-29T11:00:07.369Z,5.70
2022-10-29T11:02:45.648Z,5.30
2022-10-29T11:05:18.058Z,5.33
2022-10-29T11:07:56.316Z,4.90
2022-10-29T11:10:31.985Z,5.63
2022-10-29T11:13:04.511Z,6.60
2022-10-29T11:15:39.082Z,5.40
2022-10-29T11:20:56.235Z,6.13
2022-10-29T11:23:38.709Z,5.20
2022-10-29T11:26:09.791Z,5.67
2022-10-29T11:28:40.414Z,5.97
2022-10-29T11:31:18.541Z,5.07
2022-10-29T11:33:53.952Z,5.57
2022-10-29T11:36:23.689Z,5.97
2022-10-29T11:38:57.771Z,5.03
2022-10-29T11:41:33.139Z,5.37
2022-10-29T11:44:00.770Z,5.17
2022-10-29T11:46:39.571Z,5.77
2022-10-29T11:49:27.751Z,4.93
2022-10-29T11:52:06.316Z,5.17
2022-10-29T11:55:01.991Z,5.20
2022-10-29T11:57:37.459Z,4.97
2022-10-29T12:00:14.080Z,4.97
2022-10-29T12:02:55.945Z,6.20
2022-10-29T12:05:31.204Z,5.30
2022-10-29T12:08:15.157Z,6.03
2022-10-29T12:10:55.552Z,6.07
2022-10-29T12:13:39.212Z,5.47
2022-10-29T12:16:20.990Z,6.00
2022-10-29T12:18:56.294Z,5.33
2022-10-29T12:21:35.529Z,4.80
2022-10-29T12:24:19.714Z,5.80
2022-10-29T12:26:54.013Z,5.87
2022-10-29T12:29:30.293Z,5.97
2022-10-29T12:32:05.188Z,6.17
2022-10-29T12:34:41.411Z,5.57
2022-10-29T12:37:15.526Z,5.77
2022-10-29T12:39:49.830Z,5.70
2022-10-29T12:42:23.775Z,5.43
2022-10-29T12:45:03.345Z,5.77
2022-10-29T12:47:36.409Z,5.13
2022-10-29T12:50:18.566Z,5.67
2022-10-29T12:52:53.188Z,5.90
2022-10-29T12:55:21.214Z,5.33
2022-10-29T12:57:50.266Z,5.10
2022-10-29T13:00:47.733Z,5.30
2022-10-29T13:03:47.756Z,5.93
2022-10-29T13:06:47.288Z,5.17
2022-10-29T13:09:20.285Z,5.10
2022-10-29T13:11:51.179Z,5.22
2022-10-29T13:14:29.445Z,5.32
2022-10-29T13:16:57.995Z,5.45
2022-10-29T13:19:43.544Z,5.80
2022-10-29T13:22:55.141Z,4.90
2022-10-29T13:25:50.450Z,4.18
2022-10-29T13:28:50.549Z,4.35
2022-10-29T13:31:48.876Z,5.55
2022-10-29T13:34:51.553Z,4.45
2022-10-29T13:37:50.880Z,5.40
2022-10-29T13:41:01.346Z,4.70
2022-10-29T13:43:29.848Z,5.18
2022-10-29T13:46:45.218Z,5.10
2022-10-29T13:49:19.649Z,4.40
2022-10-29T13:51:54.602Z,5.77
2022-10-29T13:54:38.359Z,5.00
2022-10-29T13:57:15.179Z,5.43
2022-10-29T13:59:46.401Z,5.17
2022-10-29T14:02:22.848Z,5.22
2022-10-29T14:04:55.802Z,5.45
2022-10-29T14:07:31.106Z,4.70
2022-10-29T14:10:07.632Z,4.65
2022-10-29T14:12:38.231Z,5.43
2022-10-29T14:15:14.812Z,5.70
2022-10-29T14:17:42.574Z,6.30
2022-10-29T14:20:23.852Z,5.57
2022-10-29T14:22:51.656Z,5.35
2022-10-29T14:25:31.666Z,4.87
2022-10-29T14:28:27.137Z,5.55
2022-10-29T14:31:04.883Z,5.72
2022-10-29T14:33:34.032Z,5.28
2022-10-29T14:36:17.533Z,5.25
2022-10-29T14:38:49.371Z,4.93
2022-10-29T14:41:17.263Z,5.73
2022-10-29T14:43:47.504Z,5.07
2022-10-29T14:46:23.538Z,5.73
2022-10-29T14:48:57.920Z,5.63
2022-10-29T14:51:27.995Z,5.37
2022-10-29T14:54:00.824Z,5.67
2022-10-29T14:56:34.640Z,5.60
2022-10-29T14:59:05.231Z,5.67
2022-10-29T15:01:33.007Z,6.03
2022-10-29T15:04:02.148Z,6.03
2022-10-29T15:06:31.503Z,5.60
2022-10-29T15:09:01.313Z,7.07
2022-10-29T15:11:40.302Z,6.40
2022-10-29T15:17:00.020Z,6.53
2022-10-29T15:19:28.193Z,7.47
2022-10-29T15:21:57.171Z,6.93
2022-10-29T15:24:25.741Z,5.90
2022-10-29T15:26:56.143Z,6.07
2022-10-29T15:29:30.630Z,6.00
2022-10-29T15:32:01.284Z,6.23
2022-10-29T15:34:33.166Z,5.80
2022-10-29T15:37:16.026Z,6.50
2022-10-29T15:40:03.099Z,6.60
2022-10-29T15:42:33.035Z,6.93
2022-10-29T15:45:24.570Z,6.87
2022-10-29T15:47:54.263Z,6.40
2022-10-29T15:50:24.163Z,6.73
2022-10-29T15:52:58.902Z,6.17
2022-10-29T15:55:29.648Z,6.33
2022-10-29T15:58:01.392Z,7.07
2022-10-29T16:00:29.579Z,6.00
2022-10-29T16:03:03.272Z,6.87
2022-10-29T16:05:31.136Z,6.53
2022-10-29T16:08:03.447Z,7.47
2022-10-29T16:10:31.539Z,6.20
2022-10-29T16:12:59.907Z,7.30
2022-10-29T16:18:00.593Z,8.03
2022-10-29T16:20:28.403Z,7.30
2022-10-29T16:22:56.164Z,8.07
2022-10-29T16:25:27.194Z,7.90
2022-10-29T16:27:55.291Z,8.20
2022-10-29T16:30:24.280Z,7.83
2022-10-29T16:32:53.394Z,8.37
2022-10-29T16:35:22.730Z,7.70
2022-10-29T16:37:51.549Z,7.90
2022-10-29T16:40:19.852Z,7.93
2022-10-29T16:42:49.033Z,7.57
2022-10-29T16:45:18.787Z,8.60
2022-10-29T16:47:46.423Z,8.53
2022-10-29T16:50:18.400Z,8.53
2022-10-29T16:52:46.454Z,9.37
2022-10-29T16:55:14.813Z,9.00
2022-10-29T16:57:42.478Z,8.50
2022-10-29T17:00:12.600Z,9.07
2022-10-29T17:02:40.626Z,10.40
2022-10-29T17:05:08.839Z,10.87
2022-10-29T17:07:36.497Z,10.43
2022-10-29T17:10:04.804Z,11.07
2022-10-29T17:12:32.469Z,10.13
2022-10-29T17:15:00.098Z,11.53
2022-10-29T17:17:30.984Z,11.50
2022-10-29T17:19:58.849Z,13.23
2022-10-29T17:22:26.521Z,11.77
2022-10-29T17:24:54.172Z,11.53
2022-10-29T17:27:21.789Z,12.33
2022-10-29T17:29:49.451Z,11.70
2022-10-29T17:32:17.894Z,11.47
2022-10-29T17:34:46.944Z,11.27
2022-10-29T17:37:14.605Z,12.50
2022-10-29T17:39:42.246Z,12.27
2022-10-29T17:42:09.915Z,11.30
2022-10-29T17:44:37.489Z,11.73
2022-10-29T17:47:05.167Z,11.17
2022-10-29T17:49:32.788Z,11.80
2022-10-29T17:52:01.731Z,12.53
2022-10-29T17:54:29.329Z,12.33
2022-10-29T17:56:56.996Z,11.53
2022-10-29T17:59:24.643Z,11.53
2022-10-29T18:01:52.325Z,11.03
2022-10-29T18:04:19.952Z,12.10
2022-10-29T18:06:47.565Z,12.27
2022-10-29T18:09:20.199Z,13.80
2022-10-29T18:11:50.348Z,12.90
2022-10-29T18:14:18.386Z,13.10
2022-10-29T18:16:46.418Z,13.07
2022-10-29T18:19:14.020Z,12.37
2022-10-29T18:21:41.632Z,13.97
2022-10-29T18:24:09.931Z,12.37
2022-10-29T18:26:38.979Z,13.47
2022-10-29T18:29:09.104Z,13.40
2022-10-29T18:31:37.550Z,13.20
2022-10-29T18:34:07.711Z,13.10
2022-10-29T18:36:36.398Z,13.37
2022-10-29T18:39:06.091Z,12.90
2022-10-29T18:41:34.427Z,13.30
2022-10-29T18:44:03.558Z,13.00
2022-10-29T18:46:31.200Z,13.13
2022-10-29T18:48:58.800Z,13.37
2022-10-29T18:51:28.008Z,12.57
2022-10-29T18:53:58.736Z,13.57
2022-10-29T18:56:28.197Z,12.77
2022-10-29T18:58:56.622Z,12.00
2022-10-29T19:01:27.381Z,13.30
2022-10-29T19:03:57.159Z,13.23
2022-10-29T19:06:26.985Z,11.90
2022-10-29T19:08:55.448Z,13.17
2022-10-29T19:11:25.424Z,13.43
2022-10-29T19:13:53.933Z,11.73
2022-10-29T19:16:22.109Z,12.67
2022-10-29T19:18:55.282Z,11.83
2022-10-29T19:21:22.862Z,12.57
2022-10-29T19:23:54.730Z,12.00
2022-10-29T19:26:22.694Z,11.87
2022-10-29T19:28:50.445Z,11.07
2022-10-29T19:31:19.397Z,12.07
2022-10-29T19:33:48.758Z,11.73
2022-10-29T19:36:18.323Z,12.83
2022-10-29T19:38:46.200Z,12.33
2022-10-29T19:41:14.582Z,12.93
2022-10-29T19:43:42.961Z,12.03
2022-10-29T19:46:13.825Z,12.17
2022-10-29T19:48:41.882Z,12.63
2022-10-29T19:51:11.204Z,12.37
2022-10-29T19:53:40.264Z,13.63
2022-10-29T19:56:11.597Z,12.47
2022-10-29T19:58:39.329Z,12.43
2022-10-29T20:01:08.969Z,12.17
2022-10-29T20:03:37.067Z,12.40
2022-10-29T20:06:06.282Z,12.93
2022-10-29T20:08:33.881Z,12.47
2022-10-29T20:11:02.833Z,12.40
2022-10-29T20:13:30.411Z,12.50
2022-10-29T20:15:58.143Z,13.93
2022-10-29T20:18:25.797Z,12.20
2022-10-29T20:20:56.969Z,14.43
2022-10-29T20:23:25.509Z,14.87
2022-10-29T20:25:53.377Z,13.87
2022-10-29T20:28:22.316Z,12.93
2022-10-29T20:30:49.894Z,13.97
2022-10-29T20:33:17.534Z,12.57
2022-10-29T20:35:45.100Z,13.50
2022-10-29T20:38:12.656Z,13.37
2022-10-29T20:40:40.289Z,13.07
2022-10-29T20:43:07.914Z,13.10
2022-10-29T20:45:36.846Z,13.20
2022-10-29T20:48:04.610Z,13.87
2022-10-29T20:50:32.184Z,12.27
2022-10-29T20:52:59.786Z,12.90
2022-10-29T20:55:28.401Z,13.20
2022-10-29T20:57:56.331Z,13.53
2022-10-29T21:00:24.077Z,12.33
2022-10-29T21:02:52.988Z,13.60
2022-10-29T21:05:20.534Z,13.37
2022-10-29T21:07:48.094Z,13.23
2022-10-29T21:10:15.716Z,13.83
2022-10-29T21:12:43.291Z,12.77
2022-10-29T21:15:11.244Z,14.13
2022-10-29T21:17:38.868Z,15.57
2022-10-29T21:20:08.494Z,15.33
2022-10-29T21:22:36.091Z,15.67
2022-10-29T21:25:03.818Z,13.47
2022-10-29T21:27:31.368Z,13.43
2022-10-29T21:29:58.957Z,13.90
2022-10-29T21:32:26.560Z,14.67
2022-10-29T21:34:54.130Z,12.83
2022-10-29T21:37:23.094Z,11.43
2022-10-29T21:39:50.714Z,13.30
2022-10-29T21:42:18.262Z,13.10
2022-10-29T21:44:45.855Z,13.43
2022-10-29T21:47:13.439Z,12.83
2022-10-29T21:49:41.157Z,12.60
2022-10-29T21:52:08.716Z,14.07
2022-10-29T21:54:37.711Z,14.40
2022-10-29T21:57:05.835Z,13.87
2022-10-29T21:59:33.475Z,13.73
2022-10-29T22:02:01.077Z,14.70
2022-10-29T22:04:28.698Z,15.30
2022-10-29T22:06:56.855Z,13.93
2022-10-29T22:09:24.587Z,14.13
2022-10-29T22:11:53.519Z,14.77
2022-10-29T22:14:21.091Z,14.17
2022-10-29T22:16:48.693Z,14.33
2022-10-29T22:19:16.236Z,14.97
2022-10-29T22:21:46.151Z,13.87
2022-10-29T22:24:13.916Z,15.50
2022-10-29T22:26:41.524Z,14.97
2022-10-29T22:29:10.464Z,14.13
2022-10-29T22:31:38.370Z,15.70
2022-10-29T22:34:06.053Z,14.77
2022-10-29T22:36:33.618Z,15.80
2022-10-29T22:39:02.062Z,15.00
2022-10-29T22:41:30.561Z,15.97
2022-10-29T22:43:58.998Z,16.27
2022-10-29T22:46:29.516Z,15.07
2022-10-29T22:48:57.425Z,15.53
2022-10-29T22:51:26.936Z,15.80
2022-10-29T22:53:56.011Z,15.90
2022-10-29T22:56:25.087Z,14.57
2022-10-29T22:58:53.156Z,15.27
2022-10-29T23:01:23.232Z,14.57
2022-10-29T23:03:52.807Z,14.23
2022-10-29T23:06:21.818Z,14.60
2022-10-29T23:08:52.428Z,14.27
2022-10-29T23:11:21.710Z,13.70
2022-10-29T23:13:50.363Z,14.73
2022-10-29T23:16:18.093Z,13.90
2022-10-29T23:18:49.210Z,13.63
2022-10-29T23:21:18.549Z,13.43
2022-10-29T23:23:47.009Z,13.13
2022-10-29T23:26:15.283Z,13.23
2022-10-29T23:28:43.958Z,14.07
2022-10-29T23:31:14.075Z,14.30
2022-10-29T23:33:45.150Z,13.10
2022-10-29T23:36:13.847Z,12.40
2022-10-29T23:38:45.106Z,12.00
2022-10-29T23:41:13.287Z,10.97
2022-10-29T23:43:41.066Z,11.13
2022-10-29T23:46:08.717Z,11.07
2022-10-29T23:48:36.286Z,10.57
2022-10-29T23:51:03.870Z,11.37
2022-10-29T23:53:31.717Z,11.30
2022-10-29T23:56:01.287Z,12.40
2022-10-29T23:58:28.871Z,11.50
